sensor_id;sensor_type;location;lat;lon;timestamp;pressure;altitude;pressure_sealevel;temperature;humidity
80892;BME280;70343;51.530;5.050;2023-08-30T00:02:18;100891.09;;;13.03;99.78
80892;BME280;70343;51.530;5.050;2023-08-30T00:04:43;100884.88;;;13.04;99.71
80892;BME280;70343;51.530;5.050;2023-08-30T00:07:09;100879.63;;;13.04;100.00
80892;BME280;70343;51.530;5.050;2023-08-30T00:09:36;100873.38;;;13.05;99.59
80892;BME280;70343;51.530;5.050;2023-08-30T00:12:02;100864.75;;;13.04;99.86
80892;BME280;70343;51.530;5.050;2023-08-30T00:14:27;100871.16;;;13.02;100.00
80892;BME280;70343;51.530;5.050;2023-08-30T00:16:53;100858.47;;;12.86;100.00
80892;BME280;70343;51.530;5.050;2023-08-30T00:19:18;100872.38;;;12.86;100.00
80892;BME280;70343;51.530;5.050;2023-08-30T00:21:45;100864.72;;;12.91;100.00
80892;BME280;70343;51.530;5.050;2023-08-30T00:24:11;100869.53;;;12.88;99.67
80892;BME280;70343;51.530;5.050;2023-08-30T00:26:36;100866.34;;;12.79;100.00
80892;BME280;70343;51.530;5.050;2023-08-30T00:29:04;100864.72;;;12.91;100.00
80892;BME280;70343;51.530;5.050;2023-08-30T00:31:29;100858.88;;;12.89;100.00
80892;BME280;70343;51.530;5.050;2023-08-30T00:33:55;100865.53;;;12.85;99.94
80892;BME280;70343;51.530;5.050;2023-08-30T00:36:20;100859.88;;;12.82;100.00
80892;BME280;70343;51.530;5.050;2023-08-30T00:38:47;100859.91;;;12.69;100.00
80892;BME280;70343;51.530;5.050;2023-08-30T00:41:12;100851.06;;;12.70;100.00
80892;BME280;70343;51.530;5.050;2023-08-30T00:43:39;100855.47;;;12.63;100.00
80892;BME280;70343;51.530;5.050;2023-08-30T00:46:04;100855.28;;;12.71;100.00
80892;BME280;70343;51.530;5.050;2023-08-30T00:48:30;100845.41;;;12.73;100.00
80892;BME280;70343;51.530;5.050;2023-08-30T00:50:55;100843.00;;;12.71;100.00
80892;BME280;70343;51.530;5.050;2023-08-30T00:53:22;100828.31;;;12.64;100.00
80892;BME280;70343;51.530;5.050;2023-08-30T00:55:48;100831.72;;;12.64;100.00
80892;BME280;70343;51.530;5.050;2023-08-30T00:58:13;100829.53;;;12.61;100.00
80892;BME280;70343;51.530;5.050;2023-08-30T01:00:39;100827.09;;;12.53;100.00
80892;BME280;70343;51.530;5.050;2023-08-30T01:03:06;100823.28;;;12.56;100.00
80892;BME280;70343;51.530;5.050;2023-08-30T01:05:32;100829.72;;;12.60;100.00
80892;BME280;70343;51.530;5.050;2023-08-30T01:07:58;100825.69;;;12.57;100.00
80892;BME280;70343;51.530;5.050;2023-08-30T01:10:41;100826.47;;;12.64;100.00
80892;BME280;70343;51.530;5.050;2023-08-30T01:13:12;100824.06;;;12.56;100.00
80892;BME280;70343;51.530;5.050;2023-08-30T01:15:40;100830.72;;;12.59;100.00
80892;BME280;70343;51.530;5.050;2023-08-30T01:18:08;100829.13;;;12.58;100.00
80892;BME280;70343;51.530;5.050;2023-08-30T01:20:37;100822.09;;;12.51;100.00
80892;BME280;70343;51.530;5.050;2023-08-30T01:23:06;100820.69;;;12.56;100.00
80892;BME280;70343;51.530;5.050;2023-08-30T01:25:57;100826.50;;;12.58;100.00
80892;BME280;70343;51.530;5.050;2023-08-30T01:28:29;100819.84;;;12.48;100.00
80892;BME280;70343;51.530;5.050;2023-08-30T01:30:57;100825.09;;;12.42;100.00
80892;BME280;70343;51.530;5.050;2023-08-30T01:33:26;100824.91;;;12.43;100.00
80892;BME280;70343;51.530;5.050;2023-08-30T01:35:54;100822.88;;;12.45;100.00
80892;BME280;70343;51.530;5.050;2023-08-30T01:38:21;100830.50;;;12.40;100.00
80892;BME280;70343;51.530;5.050;2023-08-30T01:40:46;100824.69;;;12.45;100.00
80892;BME280;70343;51.530;5.050;2023-08-30T01:43:14;100825.28;;;12.40;100.00
80892;BME280;70343;51.530;5.050;2023-08-30T01:45:43;100821.47;;;12.43;100.00
80892;BME280;70343;51.530;5.050;2023-08-30T01:48:14;100814.03;;;12.40;100.00
80892;BME280;70343;51.530;5.050;2023-08-30T01:50:41;100807.81;;;12.34;100.00
80892;BME280;70343;51.530;5.050;2023-08-30T01:53:09;100812.44;;;12.32;100.00
80892;BME280;70343;51.530;5.050;2023-08-30T01:55:36;100807.19;;;12.32;100.00
80892;BME280;70343;51.530;5.050;2023-08-30T01:58:03;100808.78;;;12.33;100.00
80892;BME280;70343;51.530;5.050;2023-08-30T02:00:29;100806.78;;;12.35;100.00
80892;BME280;70343;51.530;5.050;2023-08-30T02:02:54;100807.19;;;12.32;100.00
80892;BME280;70343;51.530;5.050;2023-08-30T02:05:20;100811.78;;;12.17;100.00
80892;BME280;70343;51.530;5.050;2023-08-30T02:10:23;100806.38;;;12.19;100.00
80892;BME280;70343;51.530;5.050;2023-08-30T02:12:52;100801.13;;;12.25;100.00
80892;BME280;70343;51.530;5.050;2023-08-30T02:15:19;100804.34;;;12.27;100.00
80892;BME280;70343;51.530;5.050;2023-08-30T02:17:47;100798.34;;;12.33;100.00
80892;BME280;70343;51.530;5.050;2023-08-30T02:20:13;100801.16;;;12.38;100.00
80892;BME280;70343;51.530;5.050;2023-08-30T02:22:39;100805.56;;;12.44;100.00
80892;BME280;70343;51.530;5.050;2023-08-30T02:25:06;100797.94;;;12.43;100.00
80892;BME280;70343;51.530;5.050;2023-08-30T02:27:34;100808.78;;;12.46;100.00
80892;BME280;70343;51.530;5.050;2023-08-30T02:30:01;100800.75;;;12.54;100.00
80892;BME280;70343;51.530;5.050;2023-08-30T02:32:28;100794.31;;;12.57;100.00
80892;BME280;70343;51.530;5.050;2023-08-30T02:34:53;100784.66;;;12.58;100.00
80892;BME280;70343;51.530;5.050;2023-08-30T02:37:20;100799.31;;;12.59;100.00
80892;BME280;70343;51.530;5.050;2023-08-30T02:39:45;100793.91;;;12.40;100.00
80892;BME280;70343;51.530;5.050;2023-08-30T02:42:11;100792.50;;;12.51;100.00
80892;BME280;70343;51.530;5.050;2023-08-30T02:44:36;100784.84;;;12.56;100.00
80892;BME280;70343;51.530;5.050;2023-08-30T02:47:02;100789.88;;;12.44;100.00
80892;BME280;70343;51.530;5.050;2023-08-30T02:49:27;100795.13;;;12.58;100.00
80892;BME280;70343;51.530;5.050;2023-08-30T02:51:53;100785.44;;;12.58;100.00
80892;BME280;70343;51.530;5.050;2023-08-30T02:54:19;100782.81;;;12.58;100.00
80892;BME280;70343;51.530;5.050;2023-08-30T02:56:44;100787.44;;;12.56;100.00
80892;BME280;70343;51.530;5.050;2023-08-30T02:59:11;100775.78;;;12.59;100.00
80892;BME280;70343;51.530;5.050;2023-08-30T03:01:37;100777.00;;;12.49;100.00
80892;BME280;70343;51.530;5.050;2023-08-30T03:04:07;100769.75;;;12.65;100.00
80892;BME280;70343;51.530;5.050;2023-08-30T03:06:34;100768.34;;;12.69;100.00
80892;BME280;70343;51.530;5.050;2023-08-30T03:09:01;100762.28;;;12.75;100.00
80892;BME280;70343;51.530;5.050;2023-08-30T03:11:26;100754.63;;;12.80;100.00
80892;BME280;70343;51.530;5.050;2023-08-30T03:13:55;100750.81;;;12.76;100.00
80892;BME280;70343;51.530;5.050;2023-08-30T03:16:21;100746.75;;;12.80;100.00
80892;BME280;70343;51.530;5.050;2023-08-30T03:18:47;100746.81;;;12.67;100.00
80892;BME280;70343;51.530;5.050;2023-08-30T03:21:13;100741.97;;;12.77;100.00
80892;BME280;70343;51.530;5.050;2023-08-30T03:23:39;100731.50;;;12.77;100.00
80892;BME280;70343;51.530;5.050;2023-08-30T03:26:12;100729.88;;;12.76;100.00
80892;BME280;70343;51.530;5.050;2023-08-30T03:28:39;100726.66;;;12.80;100.00
80892;BME280;70343;51.530;5.050;2023-08-30T03:31:15;100711.75;;;12.74;100.00
80892;BME280;70343;51.530;5.050;2023-08-30T03:33:41;100711.75;;;12.81;100.00
80892;BME280;70343;51.530;5.050;2023-08-30T03:36:11;100703.72;;;12.76;100.00
80892;BME280;70343;51.530;5.050;2023-08-30T03:38:37;100692.03;;;12.72;100.00
80892;BME280;70343;51.530;5.050;2023-08-30T03:41:04;100699.31;;;12.70;100.00
80892;BME280;70343;51.530;5.050;2023-08-30T03:43:31;100692.91;;;12.59;100.00
80892;BME280;70343;51.530;5.050;2023-08-30T03:45:58;100687.28;;;12.56;100.00
80892;BME280;70343;51.530;5.050;2023-08-30T03:48:23;100678.03;;;12.53;100.00
80892;BME280;70343;51.530;5.050;2023-08-30T03:50:49;100672.19;;;12.51;100.00
80892;BME280;70343;51.530;5.050;2023-08-30T03:53:14;100670.00;;;12.48;100.00
80892;BME280;70343;51.530;5.050;2023-08-30T03:55:40;100672.78;;;12.46;100.00
80892;BME280;70343;51.530;5.050;2023-08-30T03:58:06;100674.41;;;12.41;100.00
80892;BME280;70343;51.530;5.050;2023-08-30T04:00:32;100672.63;;;12.41;100.00
80892;BME280;70343;51.530;5.050;2023-08-30T04:02:57;100683.28;;;12.40;100.00
80892;BME280;70343;51.530;5.050;2023-08-30T04:05:23;100671.22;;;12.39;100.00
80892;BME280;70343;51.530;5.050;2023-08-30T04:07:48;100677.25;;;12.46;100.00
80892;BME280;70343;51.530;5.050;2023-08-30T04:10:14;100668.19;;;12.42;100.00
80892;BME280;70343;51.530;5.050;2023-08-30T04:12:39;100671.19;;;12.45;100.00
80892;BME280;70343;51.530;5.050;2023-08-30T04:15:05;100671.59;;;12.49;100.00
80892;BME280;70343;51.530;5.050;2023-08-30T04:17:31;100669.78;;;12.49;100.00
80892;BME280;70343;51.530;5.050;2023-08-30T04:19:56;100659.13;;;12.51;100.00
80892;BME280;70343;51.530;5.050;2023-08-30T04:22:22;100654.53;;;12.40;100.00
80892;BME280;70343;51.530;5.050;2023-08-30T04:24:48;100651.53;;;12.36;100.00
80892;BME280;70343;51.530;5.050;2023-08-30T04:27:14;100656.16;;;12.34;100.00
80892;BME280;70343;51.530;5.050;2023-08-30T04:29:39;100652.31;;;12.37;100.00
80892;BME280;70343;51.530;5.050;2023-08-30T04:32:05;100649.09;;;12.41;100.00
80892;BME280;70343;51.530;5.050;2023-08-30T04:34:32;100651.69;;;12.41;100.00
80892;BME280;70343;51.530;5.050;2023-08-30T04:36:57;100644.28;;;12.38;100.00
80892;BME280;70343;51.530;5.050;2023-08-30T04:39:23;100651.69;;;12.41;100.00
80892;BME280;70343;51.530;5.050;2023-08-30T04:41:50;100646.91;;;12.38;100.00
80892;BME280;70343;51.530;5.050;2023-08-30T04:44:17;100639.81;;;12.45;100.00
80892;BME280;70343;51.530;5.050;2023-08-30T04:46:44;100638.63;;;12.48;100.00
80892;BME280;70343;51.530;5.050;2023-08-30T04:49:09;100638.41;;;12.49;100.00
80892;BME280;70343;51.530;5.050;2023-08-30T04:51:35;100636.78;;;12.55;100.00
80892;BME280;70343;51.530;5.050;2023-08-30T04:54:01;100626.31;;;12.48;100.00
80892;BME280;70343;51.530;5.050;2023-08-30T04:56:26;100633.78;;;12.51;100.00
80892;BME280;70343;51.530;5.050;2023-08-30T04:58:52;100624.28;;;12.57;100.00
80892;BME280;70343;51.530;5.050;2023-08-30T05:01:18;100612.63;;;12.60;100.00
80892;BME280;70343;51.530;5.050;2023-08-30T05:03:48;100623.25;;;12.65;100.00
80892;BME280;70343;51.530;5.050;2023-08-30T05:06:14;100613.78;;;12.70;100.00
80892;BME280;70343;51.530;5.050;2023-08-30T05:08:42;100612.78;;;12.71;100.00
80892;BME280;70343;51.530;5.050;2023-08-30T05:11:07;100619.16;;;12.82;100.00
80892;BME280;70343;51.530;5.050;2023-08-30T05:13:35;100619.75;;;12.84;100.00
80892;BME280;70343;51.530;5.050;2023-08-30T05:16:01;100613.53;;;12.85;100.00
80892;BME280;70343;51.530;5.050;2023-08-30T05:18:27;100614.94;;;12.87;100.00
80892;BME280;70343;51.530;5.050;2023-08-30T05:20:52;100618.91;;;12.90;100.00
80892;BME280;70343;51.530;5.050;2023-08-30T05:23:18;100612.84;;;12.96;100.00
80892;BME280;70343;51.530;5.050;2023-08-30T05:25:43;100605.97;;;13.01;100.00
80892;BME280;70343;51.530;5.050;2023-08-30T05:28:09;100611.22;;;13.08;100.00
80892;BME280;70343;51.530;5.050;2023-08-30T05:30:35;100606.19;;;13.06;100.00
80892;BME280;70343;51.530;5.050;2023-08-30T05:33:10;100601.94;;;13.12;100.00
80892;BME280;70343;51.530;5.050;2023-08-30T05:35:43;100606.31;;;13.18;100.00
80892;BME280;70343;51.530;5.050;2023-08-30T05:38:28;100596.84;;;13.17;100.00
80892;BME280;70343;51.530;5.050;2023-08-30T05:41:05;100593.22;;;13.18;100.00
80892;BME280;70343;51.530;5.050;2023-08-30T05:43:31;100594.22;;;13.17;100.00
80892;BME280;70343;51.530;5.050;2023-08-30T05:45:57;100590.78;;;13.23;100.00
80892;BME280;70343;51.530;5.050;2023-08-30T05:48:29;100589.19;;;13.22;100.00
80892;BME280;70343;51.530;5.050;2023-08-30T05:50:55;100590.78;;;13.23;100.00
80892;BME280;70343;51.530;5.050;2023-08-30T05:53:22;100595.78;;;13.24;100.00
80892;BME280;70343;51.530;5.050;2023-08-30T05:55:47;100591.53;;;13.30;100.00
80892;BME280;70343;51.530;5.050;2023-08-30T05:58:13;100582.25;;;13.34;100.00
80892;BME280;70343;51.530;5.050;2023-08-30T06:00:40;100596.38;;;13.26;100.00
80892;BME280;70343;51.530;5.050;2023-08-30T06:03:06;100585.13;;;13.26;100.00
80892;BME280;70343;51.530;5.050;2023-08-30T06:05:31;100581.91;;;13.24;100.00
80892;BME280;70343;51.530;5.050;2023-08-30T06:07:57;100589.19;;;13.22;100.00
80892;BME280;70343;51.530;5.050;2023-08-30T06:10:23;100577.91;;;13.21;100.00
80892;BME280;70343;51.530;5.050;2023-08-30T06:12:49;100588.22;;;13.16;100.00
80892;BME280;70343;51.530;5.050;2023-08-30T06:15:14;100585.78;;;13.15;100.00
80892;BME280;70343;51.530;5.050;2023-08-30T06:17:40;100587.22;;;13.11;100.00
80892;BME280;70343;51.530;5.050;2023-08-30T06:20:06;100588.03;;;13.11;100.00
80892;BME280;70343;51.530;5.050;2023-08-30T06:22:31;100595.06;;;13.11;100.00
80892;BME280;70343;51.530;5.050;2023-08-30T06:24:57;100586.03;;;13.07;100.00
80892;BME280;70343;51.530;5.050;2023-08-30T06:27:23;100582.81;;;13.05;100.00
80892;BME280;70343;51.530;5.050;2023-08-30T06:29:49;100578.41;;;12.99;100.00
80892;BME280;70343;51.530;5.050;2023-08-30T06:32:14;100578.59;;;12.97;100.00
80892;BME280;70343;51.530;5.050;2023-08-30T06:34:40;100582.47;;;12.95;100.00
80892;BME280;70343;51.530;5.050;2023-08-30T06:37:05;100593.34;;;12.92;100.00
80892;BME280;70343;51.530;5.050;2023-08-30T06:39:34;100585.72;;;12.90;100.00
80892;BME280;70343;51.530;5.050;2023-08-30T06:42:02;100581.69;;;12.88;100.00
80892;BME280;70343;51.530;5.050;2023-08-30T06:44:28;100568.38;;;12.89;100.00
80892;BME280;70343;51.530;5.050;2023-08-30T06:46:56;100562.19;;;12.84;100.00
80892;BME280;70343;51.530;5.050;2023-08-30T06:49:22;100557.97;;;12.83;100.00
80892;BME280;70343;51.530;5.050;2023-08-30T06:51:47;100553.56;;;12.83;100.00
80892;BME280;70343;51.530;5.050;2023-08-30T06:54:13;100548.72;;;12.80;100.00
80892;BME280;70343;51.530;5.050;2023-08-30T06:56:38;100545.47;;;12.85;100.00
80892;BME280;70343;51.530;5.050;2023-08-30T06:59:04;100548.09;;;12.85;100.00
80892;BME280;70343;51.530;5.050;2023-08-30T07:01:29;100537.19;;;12.88;100.00
80892;BME280;70343;51.530;5.050;2023-08-30T07:03:55;100535.19;;;12.90;100.00
80892;BME280;70343;51.530;5.050;2023-08-30T07:06:20;100518.25;;;12.92;100.00
80892;BME280;70343;51.530;5.050;2023-08-30T07:08:46;100531.94;;;12.94;100.00
80892;BME280;70343;51.530;5.050;2023-08-30T07:11:11;100533.59;;;12.89;100.00
80892;BME280;70343;51.530;5.050;2023-08-30T07:13:37;100529.31;;;12.94;100.00
80892;BME280;70343;51.530;5.050;2023-08-30T07:16:02;100523.28;;;12.94;100.00
80892;BME280;70343;51.530;5.050;2023-08-30T07:18:29;100524.69;;;12.96;100.00
80892;BME280;70343;51.530;5.050;2023-08-30T07:20:54;100518.81;;;13.01;100.00
80892;BME280;70343;51.530;5.050;2023-08-30T07:23:20;100526.84;;;13.06;100.00
80892;BME280;70343;51.530;5.050;2023-08-30T07:25:45;100515.34;;;13.07;100.00
80892;BME280;70343;51.530;5.050;2023-08-30T07:28:11;100521.19;;;13.09;100.00
80892;BME280;70343;51.530;5.050;2023-08-30T07:30:36;100511.31;;;13.11;100.00
80892;BME280;70343;51.530;5.050;2023-08-30T07:33:03;100510.31;;;13.12;100.00
80892;BME280;70343;51.530;5.050;2023-08-30T07:35:30;100508.88;;;13.16;100.00
80892;BME280;70343;51.530;5.050;2023-08-30T07:37:55;100509.84;;;13.15;100.00
80892;BME280;70343;51.530;5.050;2023-08-30T07:40:21;100503.03;;;13.14;100.00
80892;BME280;70343;51.530;5.050;2023-08-30T07:42:51;100501.22;;;13.14;100.00
80892;BME280;70343;51.530;5.050;2023-08-30T07:45:17;100515.09;;;13.15;100.00
80892;BME280;70343;51.530;5.050;2023-08-30T07:47:43;100512.06;;;13.18;100.00
80892;BME280;70343;51.530;5.050;2023-08-30T07:50:08;100507.25;;;13.15;100.00
80892;BME280;70343;51.530;5.050;2023-08-30T07:52:34;100514.69;;;13.18;100.00
80892;BME280;70343;51.530;5.050;2023-08-30T07:54:59;100511.41;;;13.22;100.00
80892;BME280;70343;51.530;5.050;2023-08-30T07:57:25;100511.59;;;13.27;100.00
80892;BME280;70343;51.530;5.050;2023-08-30T07:59:51;100511.16;;;13.30;100.00
80892;BME280;70343;51.530;5.050;2023-08-30T08:02:16;100517.34;;;13.36;100.00
80892;BME280;70343;51.530;5.050;2023-08-30T08:04:42;100506.09;;;13.35;100.00
80892;BME280;70343;51.530;5.050;2023-08-30T08:07:08;100516.94;;;13.39;100.00
80892;BME280;70343;51.530;5.050;2023-08-30T08:09:33;100515.91;;;13.40;100.00
80892;BME280;70343;51.530;5.050;2023-08-30T08:11:59;100516.28;;;13.44;100.00
80892;BME280;70343;51.530;5.050;2023-08-30T08:14:24;100520.72;;;13.43;100.00
80892;BME280;70343;51.530;5.050;2023-08-30T08:16:50;100514.44;;;13.44;100.00
80892;BME280;70343;51.530;5.050;2023-08-30T08:19:16;100511.56;;;13.52;100.00
80892;BME280;70343;51.530;5.050;2023-08-30T08:21:41;100519.59;;;13.57;100.00
80892;BME280;70343;51.530;5.050;2023-08-30T08:24:07;100516.53;;;13.60;100.00
80892;BME280;70343;51.530;5.050;2023-08-30T08:26:32;100518.34;;;13.60;100.00
80892;BME280;70343;51.530;5.050;2023-08-30T08:28:58;100519.97;;;13.61;100.00
80892;BME280;70343;51.530;5.050;2023-08-30T08:31:23;100525.56;;;13.64;100.00
80892;BME280;70343;51.530;5.050;2023-08-30T08:34:07;100518.66;;;13.70;100.00
80892;BME280;70343;51.530;5.050;2023-08-30T08:36:33;100517.16;;;13.80;100.00
80892;BME280;70343;51.530;5.050;2023-08-30T08:38:58;100524.06;;;13.93;100.00
80892;BME280;70343;51.530;5.050;2023-08-30T08:41:29;100514.97;;;14.13;100.00
80892;BME280;70343;51.530;5.050;2023-08-30T08:44:00;100522.63;;;14.33;100.00
80892;BME280;70343;51.530;5.050;2023-08-30T08:46:26;100527.75;;;14.58;100.00
80892;BME280;70343;51.530;5.050;2023-08-30T08:48:55;100526.00;;;14.70;100.00
80892;BME280;70343;51.530;5.050;2023-08-30T08:51:21;100528.88;;;14.80;100.00
80892;BME280;70343;51.530;5.050;2023-08-30T08:53:49;100526.34;;;14.73;100.00
80892;BME280;70343;51.530;5.050;2023-08-30T08:56:15;100528.69;;;14.93;100.00
80892;BME280;70343;51.530;5.050;2023-08-30T08:58:42;100506.78;;;14.99;100.00
80892;BME280;70343;51.530;5.050;2023-08-30T09:01:09;100513.44;;;15.01;100.00
80892;BME280;70343;51.530;5.050;2023-08-30T09:03:35;100510.59;;;15.26;100.00
80892;BME280;70343;51.530;5.050;2023-08-30T09:06:02;100515.31;;;15.47;100.00
80892;BME280;70343;51.530;5.050;2023-08-30T09:08:28;100510.88;;;15.59;100.00
80892;BME280;70343;51.530;5.050;2023-08-30T09:10:54;100511.19;;;15.86;100.00
80892;BME280;70343;51.530;5.050;2023-08-30T09:13:19;100517.47;;;15.96;100.00
80892;BME280;70343;51.530;5.050;2023-08-30T09:15:46;100514.88;;;15.50;100.00
80892;BME280;70343;51.530;5.050;2023-08-30T09:18:18;100517.50;;;15.73;100.00
80892;BME280;70343;51.530;5.050;2023-08-30T09:20:44;100529.59;;;15.86;100.00
80892;BME280;70343;51.530;5.050;2023-08-30T09:23:19;100526.03;;;16.03;100.00
80892;BME280;70343;51.530;5.050;2023-08-30T09:25:56;100526.47;;;16.12;100.00
80892;BME280;70343;51.530;5.050;2023-08-30T09:28:22;100524.88;;;16.23;100.00
80892;BME280;70343;51.530;5.050;2023-08-30T09:30:51;100520.19;;;16.53;100.00
80892;BME280;70343;51.530;5.050;2023-08-30T09:33:23;100521.34;;;16.45;100.00
80892;BME280;70343;51.530;5.050;2023-08-30T09:35:49;100519.13;;;16.26;100.00
80892;BME280;70343;51.530;5.050;2023-08-30T09:38:18;100521.84;;;16.31;100.00
80892;BME280;70343;51.530;5.050;2023-08-30T09:40:45;100510.88;;;16.62;100.00
80892;BME280;70343;51.530;5.050;2023-08-30T09:43:11;100511.38;;;16.59;100.00
80892;BME280;70343;51.530;5.050;2023-08-30T09:45:37;100495.06;;;17.07;100.00
80892;BME280;70343;51.530;5.050;2023-08-30T09:48:04;100505.84;;;17.05;100.00
80892;BME280;70343;51.530;5.050;2023-08-30T09:50:33;100509.28;;;17.55;100.00
80892;BME280;70343;51.530;5.050;2023-08-30T09:53:03;100512.53;;;17.79;100.00
80892;BME280;70343;51.530;5.050;2023-08-30T09:55:31;100501.31;;;17.89;100.00
80892;BME280;70343;51.530;5.050;2023-08-30T09:57:58;100498.38;;;18.07;100.00
80892;BME280;70343;51.530;5.050;2023-08-30T10:00:23;100491.44;;;18.22;100.00
80892;BME280;70343;51.530;5.050;2023-08-30T10:02:50;100492.28;;;18.49;100.00
80892;BME280;70343;51.530;5.050;2023-08-30T10:05:15;100488.47;;;18.40;100.00
80892;BME280;70343;51.530;5.050;2023-08-30T10:07:42;100496.84;;;18.54;100.00
80892;BME280;70343;51.530;5.050;2023-08-30T10:10:09;100500.56;;;18.58;100.00
80892;BME280;70343;51.530;5.050;2023-08-30T10:12:36;100497.66;;;18.86;100.00
80892;BME280;70343;51.530;5.050;2023-08-30T10:15:02;100502.97;;;18.59;100.00
80892;BME280;70343;51.530;5.050;2023-08-30T10:17:31;100508.53;;;18.63;100.00
80892;BME280;70343;51.530;5.050;2023-08-30T10:19:58;100512.81;;;18.69;100.00
80892;BME280;70343;51.530;5.050;2023-08-30T10:22:24;100504.50;;;18.34;100.00
80892;BME280;70343;51.530;5.050;2023-08-30T10:25:01;100507.69;;;17.93;100.00
80892;BME280;70343;51.530;5.050;2023-08-30T10:27:31;100508.66;;;17.48;100.00
80892;BME280;70343;51.530;5.050;2023-08-30T10:29:59;100511.06;;;17.33;100.00
80892;BME280;70343;51.530;5.050;2023-08-30T10:32:26;100512.91;;;17.49;100.00
80892;BME280;70343;51.530;5.050;2023-08-30T10:34:52;100505.50;;;17.85;100.00
80892;BME280;70343;51.530;5.050;2023-08-30T10:37:24;100502.75;;;18.18;100.00
80892;BME280;70343;51.530;5.050;2023-08-30T10:39:52;100500.16;;;18.01;98.96
80892;BME280;70343;51.530;5.050;2023-08-30T10:42:22;100492.94;;;18.40;98.23
80892;BME280;70343;51.530;5.050;2023-08-30T10:44:51;100503.75;;;18.60;97.07
80892;BME280;70343;51.530;5.050;2023-08-30T10:47:24;100512.97;;;18.36;97.40
80892;BME280;70343;51.530;5.050;2023-08-30T10:50:04;100508.81;;;17.97;96.80
80892;BME280;70343;51.530;5.050;2023-08-30T10:52:30;100507.81;;;18.03;96.46
80892;BME280;70343;51.530;5.050;2023-08-30T10:57:35;100509.59;;;18.19;96.33
80892;BME280;70343;51.530;5.050;2023-08-30T11:00:20;100498.97;;;18.35;94.55
80892;BME280;70343;51.530;5.050;2023-08-30T11:02:49;100511.38;;;18.35;95.02
80892;BME280;70343;51.530;5.050;2023-08-30T11:05:16;100504.97;;;18.74;95.48
80892;BME280;70343;51.530;5.050;2023-08-30T11:07:45;100512.53;;;18.65;92.96
80892;BME280;70343;51.530;5.050;2023-08-30T11:10:12;100512.41;;;18.55;94.94
80892;BME280;70343;51.530;5.050;2023-08-30T11:12:40;100522.97;;;18.12;96.20
80892;BME280;70343;51.530;5.050;2023-08-30T11:15:07;100524.88;;;17.95;96.40
80892;BME280;70343;51.530;5.050;2023-08-30T11:17:34;100525.84;;;17.89;96.08
80892;BME280;70343;51.530;5.050;2023-08-30T11:20:10;100523.53;;;17.93;93.96
80892;BME280;70343;51.530;5.050;2023-08-30T11:22:37;100531.41;;;17.71;90.34
80892;BME280;70343;51.530;5.050;2023-08-30T11:25:17;100534.69;;;17.78;91.94
80892;BME280;70343;51.530;5.050;2023-08-30T11:27:42;100544.84;;;17.69;92.52
80892;BME280;70343;51.530;5.050;2023-08-30T11:30:09;100534.50;;;18.06;90.40
80892;BME280;70343;51.530;5.050;2023-08-30T11:32:36;100532.81;;;18.38;91.95
80892;BME280;70343;51.530;5.050;2023-08-30T11:35:02;100526.34;;;18.51;88.69
80892;BME280;70343;51.530;5.050;2023-08-30T11:37:28;100540.91;;;18.53;88.86
80892;BME280;70343;51.530;5.050;2023-08-30T11:39:58;100521.75;;;18.41;87.78
80892;BME280;70343;51.530;5.050;2023-08-30T11:42:23;100527.41;;;18.50;85.49
80892;BME280;70343;51.530;5.050;2023-08-30T11:44:50;100522.19;;;18.55;86.66
80892;BME280;70343;51.530;5.050;2023-08-30T11:47:19;100533.22;;;18.47;81.99
80892;BME280;70343;51.530;5.050;2023-08-30T11:49:48;100535.84;;;18.47;83.17
80892;BME280;70343;51.530;5.050;2023-08-30T11:52:14;100529.81;;;18.51;83.49
80892;BME280;70343;51.530;5.050;2023-08-30T11:54:40;100543.72;;;18.95;82.86
80892;BME280;70343;51.530;5.050;2023-08-30T11:57:07;100544.22;;;18.65;82.02
80892;BME280;70343;51.530;5.050;2023-08-30T11:59:35;100542.19;;;18.51;83.59
80892;BME280;70343;51.530;5.050;2023-08-30T12:02:01;100548.22;;;18.25;81.19
80892;BME280;70343;51.530;5.050;2023-08-30T12:04:27;100543.50;;;18.27;83.97
80892;BME280;70343;51.530;5.050;2023-08-30T12:06:53;100542.19;;;18.51;81.86
80892;BME280;70343;51.530;5.050;2023-08-30T12:09:21;100553.91;;;18.82;82.81
80892;BME280;70343;51.530;5.050;2023-08-30T12:11:49;100543.84;;;19.10;83.25
80892;BME280;70343;51.530;5.050;2023-08-30T12:14:15;100538.13;;;19.18;79.77
80892;BME280;70343;51.530;5.050;2023-08-30T12:16:42;100547.00;;;19.34;80.31
80892;BME280;70343;51.530;5.050;2023-08-30T12:19:11;100541.78;;;19.44;80.51
80892;BME280;70343;51.530;5.050;2023-08-30T12:21:44;100559.75;;;19.15;80.63
80892;BME280;70343;51.530;5.050;2023-08-30T12:24:10;100561.25;;;19.06;81.57
80892;BME280;70343;51.530;5.050;2023-08-30T12:26:36;100553.16;;;19.18;78.31
80892;BME280;70343;51.530;5.050;2023-08-30T12:29:07;100549.00;;;19.59;79.08
80892;BME280;70343;51.530;5.050;2023-08-30T12:31:33;100551.13;;;19.57;78.29
80892;BME280;70343;51.530;5.050;2023-08-30T12:33:58;100552.72;;;19.58;79.26
80892;BME280;70343;51.530;5.050;2023-08-30T12:36:24;100550.00;;;19.47;78.43
80892;BME280;70343;51.530;5.050;2023-08-30T12:38:50;100547.53;;;19.36;77.59
80892;BME280;70343;51.530;5.050;2023-08-30T12:41:15;100550.53;;;19.49;76.04
80892;BME280;70343;51.530;5.050;2023-08-30T12:43:41;100561.13;;;19.49;77.81
80892;BME280;70343;51.530;5.050;2023-08-30T12:46:07;100562.06;;;19.70;76.17
80892;BME280;70343;51.530;5.050;2023-08-30T12:48:32;100563.78;;;19.91;73.65